Time;durP1;ratioP1;P1;durP2;ratioP2;P2;SDS_P1;SDS_P2;PMS_P1;PMS_P2;Temp;Humidity;BMP_temperature;BMP_pressure;BME280_temperature;BME280_humidity;BME280_pressure;Samples;Min_cycle;Max_cycle;Signal;HPM_P1;HPM_P2
2022/08/01 00:01:24;;;;;;;2.50;2.20;;;;;;;21.50;55.62;98155.94;5052919;28;20571;-70
2022/08/01 00:03:50;;;;;;;2.63;1.97;;;;;;;21.56;55.19;98150.72;5053032;28;20216;-70
2022/08/01 00:06:19;;;;;;;2.67;2.20;;;;;;;21.54;55.51;98152.75;5051175;28;20233;-70
2022/08/01 00:08:45;;;;;;;2.80;2.30;;;;;;;21.49;55.65;98148.88;5052795;28;20303;-70
2022/08/01 00:11:12;;;;;;;3.10;2.10;;;;;;;21.51;55.77;98153.09;5052512;28;20580;-70
2022/08/01 00:13:38;;;;;;;3.53;2.60;;;;;;;21.51;55.65;98157.63;5052758;28;20302;-70
2022/08/01 00:16:05;;;;;;;2.33;2.13;;;;;;;21.44;55.91;98152.09;5052841;28;20216;-70
2022/08/01 00:18:31;;;;;;;2.53;2.33;;;;;;;21.45;56.02;98151.09;5052359;28;20701;-70
2022/08/01 00:20:58;;;;;;;2.43;2.23;;;;;;;21.43;56.25;98152.25;5052318;28;20211;-70
2022/08/01 00:23:25;;;;;;;3.23;2.30;;;;;;;21.39;56.54;98153.66;5052324;28;20567;-70
2022/08/01 00:25:52;;;;;;;2.83;2.30;;;;;;;21.36;56.77;98146.75;5052422;28;20215;-70
2022/08/01 00:28:19;;;;;;;2.37;2.17;;;;;;;21.33;56.94;98160.53;5052533;28;20262;-70
2022/08/01 00:30:45;;;;;;;2.57;2.37;;;;;;;21.30;57.20;98158.19;5052599;28;20582;-69
2022/08/01 00:33:12;;;;;;;2.60;2.40;;;;;;;21.27;57.47;98161.22;5039418;28;20227;-70
2022/08/01 00:35:38;;;;;;;2.93;2.17;;;;;;;21.30;57.46;98158.19;5052676;28;20212;-70
2022/08/01 00:38:05;;;;;;;3.17;2.40;;;;;;;21.24;57.76;98156.19;5053579;28;20281;-71
2022/08/01 00:40:32;;;;;;;3.63;2.60;;;;;;;21.36;57.19;98157.50;5056547;28;20212;-70
2022/08/01 00:42:59;;;;;;;2.47;2.27;;;;;;;21.27;57.43;98160.41;5056524;28;20211;-69
2022/08/01 00:45:26;;;;;;;3.13;2.33;;;;;;;21.21;57.90;98167.28;5056258;28;20328;-70
2022/08/01 00:47:52;;;;;;;2.17;2.00;;;;;;;21.18;58.23;98159.56;5056193;28;20669;-70
2022/08/01 00:50:19;;;;;;;2.63;2.37;;;;;;;21.17;58.53;98163.28;5051670;28;20222;-70
2022/08/01 00:52:45;;;;;;;2.63;2.40;;;;;;;21.16;58.42;98164.25;5056469;28;20223;-70
2022/08/01 00:55:13;;;;;;;2.97;2.30;;;;;;;21.11;59.09;98165.78;5056160;28;20681;-70
2022/08/01 00:57:41;;;;;;;2.80;2.60;;;;;;;21.16;58.85;98160.75;5056336;28;20216;-70
2022/08/01 01:00:09;;;;;;;3.43;2.47;;;;;;;21.12;59.04;98171.00;5049113;28;20242;-69
2022/08/01 01:02:36;;;;;;;2.60;2.30;;;;;;;21.15;58.98;98167.97;5056128;28;20212;-69
2022/08/01 01:05:03;;;;;;;2.60;2.40;;;;;;;21.11;59.39;98166.66;5056122;28;20582;-69
2022/08/01 01:07:38;;;;;;;2.90;2.60;;;;;;;21.09;59.72;98174.03;5055872;28;20218;-69
2022/08/01 01:10:13;;;;;;;3.17;2.30;;;;;;;21.05;60.10;98170.00;5052509;28;20212;-70
2022/08/01 01:12:46;;;;;;;2.60;2.40;;;;;;;21.01;60.45;98173.19;5045772;28;20230;-70
2022/08/01 01:15:18;;;;;;;2.93;2.70;;;;;;;21.02;60.60;98173.03;5056025;28;20216;-69
2022/08/01 01:17:49;;;;;;;3.20;2.53;;;;;;;21.01;60.80;98171.34;5055918;28;20613;-69
2022/08/01 01:20:18;;;;;;;2.57;2.37;;;;;;;20.99;61.37;98168.00;5055839;28;20255;-70
2022/08/01 01:22:59;;;;;;;3.60;2.60;;;;;;;20.95;61.66;98174.72;5055924;28;20248;-70
2022/08/01 01:25:42;;;;;;;2.63;2.30;;;;;;;20.91;61.87;98170.69;5054945;28;20216;-70
2022/08/01 01:28:15;;;;;;;2.67;2.47;;;;;;;20.90;62.14;98173.56;5055383;28;20690;-70
2022/08/01 01:30:48;;;;;;;2.77;2.50;;;;;;;20.87;62.69;98174.72;5055658;28;20216;-70
2022/08/01 01:33:17;;;;;;;2.97;2.77;;;;;;;20.88;63.00;98178.25;5055610;28;20209;-70
2022/08/01 01:35:48;;;;;;;3.07;2.63;;;;;;;20.85;63.26;98181.25;5055308;28;20669;-70
2022/08/01 01:38:20;;;;;;;2.70;2.50;;;;;;;20.79;63.78;98169.31;5055295;28;20227;-70
2022/08/01 01:40:48;;;;;;;3.23;2.50;;;;;;;20.81;63.94;98172.69;5055085;28;20220;-68
2022/08/01 01:43:16;;;;;;;3.37;2.53;;;;;;;20.77;64.21;98174.03;5054991;28;20708;-69
2022/08/01 01:45:45;;;;;;;3.10;2.80;;;;;;;20.76;64.52;98177.72;5054953;28;20688;-71
2022/08/01 01:48:15;;;;;;;2.60;2.40;;;;;;;20.73;64.61;98178.03;5054966;28;20695;-71
2022/08/01 01:50:43;;;;;;;2.60;2.40;;;;;;;20.69;65.24;98178.56;5054112;28;20216;-71
2022/08/01 01:53:13;;;;;;;2.93;2.57;;;;;;;20.69;65.37;98182.09;5053309;28;20238;-70
2022/08/01 01:55:41;;;;;;;2.50;2.30;;;;;;;20.70;65.53;98183.78;5054814;28;20222;-69
2022/08/01 01:58:10;;;;;;;3.30;2.60;;;;;;;20.69;65.88;98187.47;5055146;28;20219;-70
2022/08/01 02:00:38;;;;;;;2.60;2.40;;;;;;;20.71;65.79;98184.59;5054778;28;20695;-70
2022/08/01 02:03:08;;;;;;;3.07;2.50;;;;;;;20.68;66.10;98185.78;5050282;28;20566;-70
2022/08/01 02:05:38;;;;;;;2.50;2.30;;;;;;;20.66;66.28;98182.41;5054967;28;20220;-70
2022/08/01 02:08:06;;;;;;;3.83;2.73;;;;;;;20.62;66.92;98186.47;5054628;28;20681;-70
2022/08/01 02:10:34;;;;;;;2.90;2.60;;;;;;;20.54;67.41;98183.75;5054048;28;20219;-70
2022/08/01 02:13:03;;;;;;;3.00;2.60;;;;;;;20.50;67.73;98182.41;5054523;28;20208;-70
2022/08/01 02:15:32;;;;;;;3.00;2.67;;;;;;;20.52;67.73;98185.78;5043679;28;20216;-70
2022/08/01 02:18:01;;;;;;;2.73;2.53;;;;;;;20.48;68.09;98186.28;5054754;28;20216;-70
2022/08/01 02:20:31;;;;;;;2.77;2.57;;;;;;;20.42;68.51;98186.94;5052705;28;20235;-70
2022/08/01 02:23:03;;;;;;;3.43;2.40;;;;;;;20.39;68.61;98196.16;5054796;28;20251;-70
2022/08/01 02:25:34;;;;;;;2.77;2.57;;;;;;;20.39;68.62;98198.84;5054295;28;20211;-70
2022/08/01 02:28:05;;;;;;;3.03;2.73;;;;;;;20.34;69.01;98193.13;5054417;28;20216;-69
2022/08/01 02:30:35;;;;;;;2.67;2.30;;;;;;;20.34;69.35;98190.44;5054480;28;20212;-69
2022/08/01 02:33:05;;;;;;;2.80;2.60;;;;;;;20.28;69.33;98192.94;5054177;28;20626;-70
2022/08/01 02:35:36;;;;;;;2.70;2.50;;;;;;;20.23;69.84;98196.13;5054041;28;20700;-70
2022/08/01 02:38:07;;;;;;;2.57;2.37;;;;;;;20.18;70.11;98198.44;5054298;28;20207;-70
2022/08/01 02:40:35;;;;;;;3.40;2.47;;;;;;;20.16;70.40;98197.78;5054268;28;20244;-70
2022/08/01 02:43:04;;;;;;;2.63;2.40;;;;;;;20.11;70.91;98200.13;5042939;28;20674;-69
2022/08/01 02:45:34;;;;;;;2.77;2.57;;;;;;;20.11;71.00;98201.97;5052144;28;20258;-70
2022/08/01 02:48:06;;;;;;;3.27;2.70;;;;;;;20.06;71.27;98199.75;5054219;28;20269;-70
2022/08/01 02:50:35;;;;;;;2.63;2.43;;;;;;;20.03;71.56;98199.22;5053958;28;20230;-70
2022/08/01 02:53:03;;;;;;;3.97;2.60;;;;;;;20.02;71.52;98203.75;5054130;28;20687;-70
2022/08/01 02:55:32;;;;;;;2.90;2.60;;;;;;;20.01;71.93;98210.13;5054153;28;20214;-70
2022/08/01 02:58:01;;;;;;;4.13;2.80;;;;;;;20.01;72.09;98206.59;5054123;28;20219;-69
2022/08/01 03:00:29;;;;;;;2.97;2.60;;;;;;;19.99;72.35;98203.25;5053764;28;20247;-70
2022/08/01 03:02:57;;;;;;;2.70;2.50;;;;;;;19.95;72.67;98202.72;5054062;28;20215;-69
2022/08/01 03:05:25;;;;;;;3.00;2.70;;;;;;;19.93;72.81;98206.56;5053729;28;20220;-69
2022/08/01 03:07:54;;;;;;;3.20;2.90;;;;;;;19.90;73.21;98205.06;5053867;28;20588;-69
2022/08/01 03:10:22;;;;;;;3.07;2.67;;;;;;;19.89;73.47;98208.75;5053850;28;20222;-70
2022/08/01 03:12:50;;;;;;;3.77;2.70;;;;;;;19.84;73.87;98205.69;5052175;28;20209;-69
2022/08/01 03:15:18;;;;;;;3.90;2.93;;;;;;;19.79;74.35;98201.81;5053408;28;20216;-69
2022/08/01 03:17:47;;;;;;;2.83;2.53;;;;;;;19.76;74.56;98200.28;5053302;28;20212;-69
2022/08/01 03:20:17;;;;;;;3.37;2.67;;;;;;;19.78;75.08;98208.19;5053168;28;20708;-69
2022/08/01 03:22:45;;;;;;;2.87;2.57;;;;;;;19.75;75.13;98206.66;5053708;28;20259;-69
2022/08/01 03:25:15;;;;;;;2.50;2.30;;;;;;;19.73;75.49;98211.34;5053285;28;20216;-69
2022/08/01 03:27:44;;;;;;;2.80;2.60;;;;;;;19.72;75.67;98201.63;5049213;28;20262;-69
2022/08/01 03:30:12;;;;;;;3.57;2.70;;;;;;;19.71;76.07;98199.97;5053149;28;20208;-69
2022/08/01 03:32:39;;;;;;;2.80;2.60;;;;;;;19.71;76.16;98205.31;5053498;28;20230;-69
2022/08/01 03:35:07;;;;;;;2.73;2.47;;;;;;;19.71;76.42;98205.31;5053454;28;20575;-69
2022/08/01 03:37:37;;;;;;;2.70;2.50;;;;;;;19.70;76.42;98206.28;5051749;28;20216;-70
2022/08/01 03:40:07;;;;;;;3.97;2.43;;;;;;;19.71;76.65;98213.38;5050794;28;20232;-69
2022/08/01 03:42:42;;;;;;;2.50;2.30;;;;;;;19.71;76.67;98207.16;5053200;28;20219;-70
2022/08/01 03:45:16;;;;;;;3.20;2.50;;;;;;;19.69;76.88;98206.47;5053172;28;21330;-69
2022/08/01 03:47:45;;;;;;;2.50;2.30;;;;;;;19.66;77.17;98206.78;5052849;28;20224;-70
2022/08/01 03:50:14;;;;;;;2.50;2.30;;;;;;;19.66;77.33;98213.00;5052945;28;20710;-70
2022/08/01 03:52:43;;;;;;;2.47;2.27;;;;;;;19.65;77.62;98215.84;5053509;28;20261;-69
2022/08/01 03:55:12;;;;;;;2.50;2.30;;;;;;;19.66;77.83;98213.00;5052850;28;20212;-70
2022/08/01 03:57:41;;;;;;;2.70;2.50;;;;;;;19.62;78.16;98219.66;5052970;28;20238;-70
2022/08/01 04:00:08;;;;;;;2.90;2.23;;;;;;;19.56;78.71;98217.63;5052839;28;20240;-70
2022/08/01 04:02:35;;;;;;;3.37;2.53;;;;;;;19.59;78.58;98216.47;5052582;28;20230;-69
2022/08/01 04:05:03;;;;;;;2.60;2.40;;;;;;;19.59;78.60;98211.97;5051081;28;20692;-69
2022/08/01 04:07:31;;;;;;;2.30;2.10;;;;;;;19.61;78.89;98211.78;5052505;28;20734;-69
2022/08/01 04:09:58;;;;;;;2.57;2.37;;;;;;;19.62;78.97;98214.31;5053026;28;20310;-70
2022/08/01 04:12:25;;;;;;;3.90;2.33;;;;;;;19.63;79.20;98218.66;5052261;28;20218;-69
2022/08/01 04:14:53;;;;;;;2.53;2.30;;;;;;;19.62;79.39;98222.34;5052806;28;20216;-69
2022/08/01 04:17:19;;;;;;;2.63;2.20;;;;;;;19.66;79.14;98217.50;5052448;28;20216;-69
2022/08/01 04:19:46;;;;;;;2.57;2.37;;;;;;;19.75;79.04;98228.13;5052704;28;20247;-69
2022/08/01 04:22:15;;;;;;;3.53;2.30;;;;;;;19.82;78.74;98218.41;5052618;28;20724;-69
2022/08/01 04:24:43;;;;;;;2.83;2.40;;;;;;;19.86;78.80;98218.94;5048184;28;20219;-69
2022/08/01 04:27:14;;;;;;;2.83;2.27;;;;;;;19.93;78.67;98220.00;5052708;28;20212;-69
2022/08/01 04:29:43;;;;;;;2.43;2.23;;;;;;;19.98;78.47;98228.38;5050676;28;20230;-69
2022/08/01 04:32:15;;;;;;;2.30;2.10;;;;;;;20.06;78.40;98231.97;5052459;28;20274;-70
2022/08/01 04:34:45;;;;;;;2.50;2.30;;;;;;;20.13;78.02;98221.44;5052283;28;20677;-69
2022/08/01 04:37:16;;;;;;;2.70;2.40;;;;;;;20.26;77.58;98227.16;5052274;28;20219;-71
2022/08/01 04:39:44;;;;;;;2.13;2.00;;;;;;;20.34;77.19;98228.03;5052413;28;20247;-69
2022/08/01 04:42:11;;;;;;;3.60;2.20;;;;;;;20.51;76.52;98232.44;5052531;28;20273;-69
2022/08/01 04:44:38;;;;;;;2.53;2.33;;;;;;;20.89;74.76;98229.13;5052443;28;20219;-69
2022/08/01 04:47:07;;;;;;;2.80;2.37;;;;;;;21.06;73.99;98230.81;5052128;28;20250;-71
2022/08/01 04:49:35;;;;;;;3.10;2.17;;;;;;;21.11;73.48;98231.16;5052485;28;20308;-69
2022/08/01 04:52:03;;;;;;;2.30;2.10;;;;;;;21.14;73.33;98227.25;5052326;28;20216;-68
2022/08/01 04:54:33;;;;;;;3.10;2.10;;;;;;;21.18;73.04;98221.41;5052440;28;20223;-68
2022/08/01 04:57:00;;;;;;;3.13;2.10;;;;;;;21.22;72.55;98217.34;5050659;28;20262;-71
2022/08/01 04:59:42;;;;;;;2.33;2.10;;;;;;;21.27;72.50;98225.75;5052046;28;20295;-68
2022/08/01 05:02:10;;;;;;;2.60;2.00;;;;;;;21.33;72.27;98225.06;5048348;28;20211;-69
2022/08/01 05:04:39;;;;;;;3.20;2.77;;;;;;;21.37;72.52;98225.56;5040834;28;20220;-69
2022/08/01 05:07:06;;;;;;;2.37;2.17;;;;;;;21.45;72.13;98222.88;5052300;28;20220;-69
2022/08/01 05:09:34;;;;;;;3.33;2.27;;;;;;;21.50;71.92;98213.25;5052212;28;20598;-69
2022/08/01 05:12:01;;;;;;;2.13;2.00;;;;;;;21.59;72.02;98225.66;5052314;28;20223;-71
2022/08/01 05:14:31;;;;;;;2.97;2.10;;;;;;;21.70;71.99;98236.09;5041082;28;20216;-69
2022/08/01 05:16:58;;;;;;;2.00;1.90;;;;;;;21.84;71.55;98235.41;5051941;28;20274;-69
2022/08/01 05:19:25;;;;;;;2.50;2.10;;;;;;;21.97;71.07;98227.63;5051964;28;20589;-69
2022/08/01 05:21:53;;;;;;;3.77;2.30;;;;;;;22.09;70.58;98228.91;5051336;28;20619;-70
2022/08/01 05:24:19;;;;;;;2.37;2.07;;;;;;;22.19;70.11;98221.44;5052723;28;20216;-69
2022/08/01 05:26:46;;;;;;;2.50;2.10;;;;;;;22.31;69.98;98228.09;5055469;28;20681;-69
2022/08/01 05:29:12;;;;;;;3.67;2.10;;;;;;;22.43;69.71;98232.09;5055529;28;20212;-69
2022/08/01 05:31:39;;;;;;;2.30;2.00;;;;;;;22.59;69.19;98232.00;5055936;28;20224;-69
2022/08/01 05:34:06;;;;;;;1.90;1.80;;;;;;;23.09;67.47;98226.91;5055564;28;20220;-69
2022/08/01 05:36:32;;;;;;;2.57;1.90;;;;;;;23.96;63.87;98234.34;5055810;28;20216;-70
2022/08/01 05:39:00;;;;;;;2.00;1.60;;;;;;;24.92;59.85;98233.84;5055757;28;20234;-70
2022/08/01 05:41:27;;;;;;;3.40;1.80;;;;;;;25.72;56.59;98242.44;5055256;28;20251;-70
2022/08/01 05:43:53;;;;;;;1.70;1.60;;;;;;;26.67;53.47;98244.22;5055171;28;20696;-70
2022/08/01 05:46:20;;;;;;;1.63;1.33;;;;;;;27.35;51.17;98242.06;5055500;28;20216;-69
2022/08/01 05:48:46;;;;;;;1.73;1.60;;;;;;;27.59;50.44;98244.16;5051640;28;20716;-69
2022/08/01 05:51:13;;;;;;;2.27;1.47;;;;;;;27.40;50.58;98240.38;5054203;28;20236;-69
2022/08/01 05:53:40;;;;;;;2.87;1.57;;;;;;;27.74;49.19;98239.31;5053630;28;20587;-70
2022/08/01 05:56:08;;;;;;;1.40;1.30;;;;;;;27.32;50.09;98242.47;5054014;28;20216;-69
2022/08/01 05:58:34;;;;;;;2.53;1.90;;;;;;;27.26;50.55;98251.44;5053791;28;20220;-69
2022/08/01 06:01:01;;;;;;;1.80;1.70;;;;;;;27.26;50.77;98246.00;5053833;28;20247;-69
2022/08/01 06:03:30;;;;;;;2.00;1.75;;;;;;;27.46;50.44;98241.44;5053532;28;20218;-69
2022/08/01 06:05:58;;;;;;;1.90;1.33;;;;;;;27.82;49.85;98242.66;5053874;28;20219;-70
2022/08/01 06:08:25;;;;;;;1.77;1.50;;;;;;;27.85;49.50;98241.41;5053849;28;20208;-69
2022/08/01 06:10:51;;;;;;;1.53;1.43;;;;;;;28.09;48.71;98247.00;5053606;28;20230;-70
2022/08/01 06:13:19;;;;;;;2.00;1.40;;;;;;;28.35;47.84;98248.78;5053894;28;20251;-69
2022/08/01 06:15:46;;;;;;;1.67;1.17;;;;;;;28.82;46.90;98251.97;5051884;28;20220;-69
2022/08/01 06:18:14;;;;;;;1.77;1.65;;;;;;;28.93;47.08;98253.16;5053269;28;20224;-69
2022/08/01 06:20:40;;;;;;;2.27;1.40;;;;;;;29.11;46.27;98245.13;5053283;28;20243;-70
2022/08/01 06:23:07;;;;;;;2.35;1.58;;;;;;;29.48;44.90;98252.38;5052903;28;20293;-69
2022/08/01 06:25:33;;;;;;;1.98;1.52;;;;;;;29.83;44.72;98267.19;5053038;28;20223;-69
2022/08/01 06:28:00;;;;;;;1.77;1.58;;;;;;;30.34;44.11;98254.06;5053219;28;20212;-69
2022/08/01 06:30:28;;;;;;;1.42;1.33;;;;;;;30.69;42.96;98252.41;5053383;28;20216;-71
2022/08/01 06:32:58;;;;;;;1.27;1.17;;;;;;;30.75;42.26;98246.03;5052847;28;20224;-70
2022/08/01 06:35:25;;;;;;;1.45;1.30;;;;;;;30.88;42.41;98262.22;5052259;28;20819;-71
2022/08/01 06:37:51;;;;;;;1.42;1.30;;;;;;;30.92;42.17;98261.53;5052931;28;20212;-70
2022/08/01 06:40:18;;;;;;;2.47;1.40;;;;;;;30.76;42.66;98256.69;5053119;28;20250;-71
2022/08/01 06:42:46;;;;;;;1.27;1.17;;;;;;;30.16;43.75;98252.19;5051396;28;20212;-72
2022/08/01 06:45:14;;;;;;;1.38;1.27;;;;;;;29.53;44.78;98256.09;5053320;28;20219;-71
2022/08/01 06:47:44;;;;;;;3.92;1.42;;;;;;;28.60;46.97;98257.91;5052614;28;20674;-71
2022/08/01 06:50:13;;;;;;;1.75;1.65;;;;;;;28.01;48.39;98260.81;5052627;28;20216;-70
2022/08/01 06:52:40;;;;;;;2.70;1.50;;;;;;;27.62;49.19;98265.44;5053031;28;20703;-70
2022/08/01 06:55:08;;;;;;;1.42;1.10;;;;;;;27.19;50.63;98256.03;5052617;28;20212;-70
2022/08/01 06:57:35;;;;;;;1.55;1.40;;;;;;;26.73;51.82;98257.81;5052598;28;20220;-69
2022/08/01 07:00:05;;;;;;;2.10;1.35;;;;;;;26.51;52.64;98264.34;5052878;28;20313;-69
2022/08/01 07:02:32;;;;;;;1.33;1.23;;;;;;;26.29;52.88;98272.81;5052868;28;20224;-70
2022/08/01 07:05:00;;;;;;;2.10;1.52;;;;;;;25.95;54.01;98265.53;5052667;28;20218;-69
2022/08/01 07:07:26;;;;;;;1.40;1.07;;;;;;;25.72;55.15;98269.53;5051351;28;20740;-69
2022/08/01 07:09:53;;;;;;;1.40;1.30;;;;;;;25.56;55.86;98267.09;5049990;28;20210;-69
2022/08/01 07:12:19;;;;;;;1.70;1.33;;;;;;;25.49;56.98;98264.34;5051397;28;20696;-70
2022/08/01 07:14:46;;;;;;;1.70;1.30;;;;;;;25.73;56.30;98265.78;5051402;28;20220;-69
2022/08/01 07:17:12;;;;;;;2.40;1.57;;;;;;;25.67;55.85;98275.50;5051569;28;20226;-69
2022/08/01 07:19:39;;;;;;;1.70;1.60;;;;;;;25.61;55.73;98262.75;5051223;28;20231;-69
2022/08/01 07:22:07;;;;;;;1.63;1.43;;;;;;;25.59;55.96;98264.03;5051195;28;20254;-69
2022/08/01 07:24:33;;;;;;;1.57;1.40;;;;;;;25.44;57.20;98264.09;5051058;28;20223;-69
2022/08/01 07:27:00;;;;;;;2.53;1.70;;;;;;;25.34;57.69;98260.03;5051332;28;20223;-69
2022/08/01 07:29:26;;;;;;;1.90;1.37;;;;;;;25.43;58.14;98258.88;5051095;28;20212;-69
2022/08/01 07:31:53;;;;;;;1.83;1.40;;;;;;;25.45;56.89;98264.94;5051258;28;20216;-69
2022/08/01 07:34:20;;;;;;;2.57;1.60;;;;;;;25.24;58.06;98257.66;5051090;28;20674;-69
2022/08/01 07:36:47;;;;;;;1.50;1.40;;;;;;;25.29;58.74;98257.94;5049339;28;20220;-69
2022/08/01 07:39:14;;;;;;;1.80;1.50;;;;;;;25.27;58.97;98253.75;5049775;28;20215;-69
2022/08/01 07:41:41;;;;;;;1.40;1.30;;;;;;;25.29;58.66;98257.09;5049358;28;20713;-69
2022/08/01 07:44:07;;;;;;;3.33;1.43;;;;;;;25.29;58.91;98249.00;5048726;28;20222;-69
2022/08/01 07:46:34;;;;;;;1.67;1.50;;;;;;;25.49;58.95;98253.50;5050227;28;20220;-68
2022/08/01 07:49:00;;;;;;;4.43;1.53;;;;;;;25.73;57.52;98255.75;5048574;28;20630;-69
2022/08/01 07:51:27;;;;;;;2.03;1.60;;;;;;;26.20;55.70;98258.59;5034782;28;20279;-68
2022/08/01 07:53:54;;;;;;;1.50;1.38;;;;;;;26.46;54.39;98252.47;5047918;28;20215;-68
2022/08/01 07:56:23;;;;;;;1.87;1.70;;;;;;;26.71;54.14;98251.72;5050001;28;20234;-71
2022/08/01 07:58:50;;;;;;;1.83;1.30;;;;;;;26.90;53.75;98255.53;5050286;28;20650;-71
2022/08/01 08:01:17;;;;;;;2.80;1.60;;;;;;;26.85;53.35;98258.03;5050561;28;20240;-70
2022/08/01 08:03:44;;;;;;;2.78;1.50;;;;;;;26.75;53.00;98263.84;5048910;28;20216;-70
2022/08/01 08:06:10;;;;;;;1.80;1.50;;;;;;;26.59;53.64;98257.97;5050080;28;20226;-70
2022/08/01 08:08:37;;;;;;;3.07;1.60;;;;;;;26.32;54.04;98256.97;5049708;28;20220;-70
2022/08/01 08:11:03;;;;;;;1.60;1.50;;;;;;;26.29;54.74;98251.97;5047749;28;20226;-72
2022/08/01 08:13:31;;;;;;;1.93;1.47;;;;;;;26.52;54.04;98249.75;5049235;28;20227;-67
2022/08/01 08:15:59;;;;;;;2.27;1.63;;;;;;;26.54;53.45;98260.44;5049629;28;20238;-69
2022/08/01 08:18:26;;;;;;;1.80;1.50;;;;;;;26.59;54.78;98247.94;5048569;28;20266;-69
2022/08/01 08:20:52;;;;;;;1.77;1.40;;;;;;;26.57;54.01;98251.91;5037283;28;20228;-70
2022/08/01 08:26:03;;;;;;;3.20;1.48;;;;;;;26.50;54.61;98254.56;5044592;28;20594;-74
2022/08/01 08:28:31;;;;;;;1.80;1.70;;;;;;;26.84;53.79;98249.06;5038484;28;20218;-75
2022/08/01 08:30:57;;;;;;;1.58;1.23;;;;;;;27.02;52.11;98243.03;5034508;28;20219;-77
2022/08/01 08:33:24;;;;;;;2.00;1.57;;;;;;;27.11;51.11;98242.63;5036297;28;20693;-77
2022/08/01 08:35:50;;;;;;;1.83;1.48;;;;;;;27.13;50.34;98251.41;5039765;28;20218;-77
2022/08/01 08:38:17;;;;;;;2.60;1.40;;;;;;;26.89;51.29;98249.28;5040308;28;20212;-77
2022/08/01 08:40:44;;;;;;;2.53;1.60;;;;;;;26.77;51.97;98250.91;5043365;28;20232;-76
2022/08/01 08:43:11;;;;;;;3.40;1.80;;;;;;;26.59;52.18;98249.81;5036223;28;20216;-77
2022/08/01 08:45:39;;;;;;;2.53;1.60;;;;;;;26.76;51.65;98246.53;5044727;28;20654;-76
2022/08/01 08:48:06;;;;;;;2.90;1.77;;;;;;;26.84;51.44;98250.94;5038196;28;20239;-75
2022/08/01 08:50:33;;;;;;;2.43;1.80;;;;;;;26.74;52.29;98245.06;5035917;28;20615;-79
2022/08/01 08:53:02;;;;;;;2.08;1.88;;;;;;;26.75;52.25;98244.03;5036423;28;21074;-79
2022/08/01 08:55:29;;;;;;;2.00;1.80;;;;;;;27.00;52.85;98247.84;5043925;28;20743;-78
2022/08/01 08:57:57;;;;;;;3.37;1.80;;;;;;;27.16;51.04;98244.75;5037207;28;20219;-78
2022/08/01 09:00:24;;;;;;;1.85;1.70;;;;;;;27.10;51.62;98251.81;5039123;28;20220;-78
2022/08/01 09:02:55;;;;;;;2.13;1.75;;;;;;;27.21;51.18;98250.41;5039670;28;20213;-78
2022/08/01 09:05:25;;;;;;;4.35;1.92;;;;;;;27.32;50.60;98255.22;5048977;28;20585;-78
2022/08/01 09:07:52;;;;;;;1.95;1.70;;;;;;;27.43;50.66;98248.13;5061032;28;20216;-79
2022/08/01 09:10:18;;;;;;;2.67;2.17;;;;;;;27.61;50.84;98250.19;5039110;28;20588;-79
2022/08/01 09:13:03;;;;;;;2.53;2.20;;;;;;;27.73;49.45;98243.91;5040237;28;20217;-79
2022/08/01 09:15:39;;;;;;;2.95;2.42;;;;;;;27.57;49.92;98248.97;5043234;28;20222;-77
2022/08/01 09:18:07;;;;;;;2.92;2.45;;;;;;;27.64;50.46;98257.94;5039437;28;20582;-76
2022/08/01 09:20:35;;;;;;;3.08;2.22;;;;;;;27.67;48.92;98254.78;5046529;28;20295;-77
2022/08/01 09:23:03;;;;;;;3.03;2.25;;;;;;;27.50;50.15;98248.09;5039200;28;20248;-76
2022/08/01 09:25:33;;;;;;;3.95;2.35;;;;;;;27.47;50.73;98253.97;5050590;28;20222;-80
2022/08/01 09:28:04;;;;;;;2.92;2.60;;;;;;;27.37;50.40;98248.09;5052779;28;20678;-80
2022/08/01 09:30:37;;;;;;;3.20;2.90;;;;;;;27.28;50.65;98257.50;5052646;28;20218;-73
2022/08/01 09:33:04;;;;;;;3.67;3.35;;;;;;;27.04;50.92;98253.47;5051605;28;20226;-71
2022/08/01 09:35:36;;;;;;;3.95;3.45;;;;;;;26.84;51.60;98268.06;5052708;28;20243;-74
2022/08/01 09:38:16;;;;;;;4.53;3.53;;;;;;;26.71;51.97;98259.03;5052646;28;20581;-73
2022/08/01 09:40:48;;;;;;;3.90;3.50;;;;;;;26.54;52.67;98261.28;5046829;28;20275;-81
2022/08/01 09:43:14;;;;;;;3.95;3.60;;;;;;;26.76;52.59;98260.09;5052640;28;20593;-80
2022/08/01 09:45:41;;;;;;;4.55;3.70;;;;;;;27.17;52.46;98249.97;5052504;28;20299;-81
2022/08/01 09:48:09;;;;;;;3.57;3.27;;;;;;;27.81;51.02;98261.94;5051550;28;20222;-80
2022/08/01 09:50:48;;;;;;;3.05;2.70;;;;;;;28.35;49.42;98259.66;5052506;28;20219;-77
2022/08/01 09:53:16;;;;;;;3.08;2.88;;;;;;;28.63;48.78;98258.34;5050474;28;20227;-77
2022/08/01 09:55:44;;;;;;;3.60;3.13;;;;;;;28.44;47.65;98253.81;5052774;28;20719;-75
2022/08/01 09:58:11;;;;;;;3.50;3.15;;;;;;;28.05;48.20;98255.78;5052965;28;20307;-77
2022/08/01 10:00:40;;;;;;;3.50;3.20;;;;;;;27.72;48.88;98252.28;5052845;28;20220;-72
2022/08/01 10:03:20;;;;;;;3.40;2.90;;;;;;;27.56;49.94;98250.81;5052593;28;20247;-72
2022/08/01 10:05:49;;;;;;;2.83;2.63;;;;;;;27.55;49.25;98256.47;5052600;28;20243;-71
2022/08/01 10:08:16;;;;;;;3.33;3.03;;;;;;;27.52;49.39;98252.28;5048812;28;20220;-71
2022/08/01 10:10:43;;;;;;;3.45;3.08;;;;;;;27.47;49.55;98245.81;5051332;28;20307;-71
2022/08/01 10:13:11;;;;;;;3.60;2.72;;;;;;;27.68;49.47;98235.56;5052765;28;20216;-70
2022/08/01 10:15:39;;;;;;;3.67;2.70;;;;;;;27.72;49.13;98242.25;5052739;28;20218;-71
2022/08/01 10:18:08;;;;;;;2.65;2.45;;;;;;;27.59;48.73;98238.72;5052519;28;20212;-71
2022/08/01 10:20:34;;;;;;;4.05;2.67;;;;;;;27.46;48.94;98242.25;5051319;28;20359;-71
2022/08/01 10:23:04;;;;;;;2.60;2.40;;;;;;;27.49;49.42;98236.44;5053010;28;20244;-71
2022/08/01 10:25:36;;;;;;;2.38;2.20;;;;;;;27.59;48.52;98233.28;5053262;28;20581;-72
2022/08/01 10:28:11;;;;;;;2.30;2.10;;;;;;;27.63;48.46;98237.25;5053290;28;20290;-71
2022/08/01 10:30:38;;;;;;;4.43;2.70;;;;;;;27.63;48.96;98237.25;5052561;28;20226;-69
2022/08/01 10:33:05;;;;;;;2.47;2.28;;;;;;;27.67;48.74;98227.63;5053304;28;20231;-72
2022/08/01 10:35:32;;;;;;;2.30;2.10;;;;;;;27.84;48.08;98228.88;5053141;28;20216;-71
2022/08/01 10:37:59;;;;;;;2.30;2.10;;;;;;;27.99;47.50;98229.47;5053090;28;20220;-73
2022/08/01 10:40:28;;;;;;;2.13;2.03;;;;;;;27.88;48.01;98227.41;5053157;28;20304;-71
2022/08/01 10:42:55;;;;;;;2.40;2.20;;;;;;;27.91;47.79;98221.53;5052923;28;20635;-70
2022/08/01 10:45:22;;;;;;;2.50;2.30;;;;;;;28.03;46.44;98223.41;5052880;28;20226;-71
2022/08/01 10:47:58;;;;;;;2.30;2.10;;;;;;;28.21;46.70;98225.44;5051185;28;20246;-71
2022/08/01 10:50:30;;;;;;;4.00;2.15;;;;;;;28.38;45.83;98215.78;5039659;28;20294;-72
2022/08/01 10:53:14;;;;;;;2.20;2.00;;;;;;;28.52;45.39;98217.38;5052844;28;20565;-72
2022/08/01 10:55:51;;;;;;;3.03;2.10;;;;;;;28.60;44.81;98217.13;5052764;28;20245;-71
2022/08/01 10:58:25;;;;;;;2.65;2.45;;;;;;;28.61;45.08;98210.66;5039503;28;20598;-71
2022/08/01 11:01:16;;;;;;;5.13;2.38;;;;;;;28.86;44.79;98206.09;5052814;28;20220;-71
2022/08/01 11:03:44;;;;;;;3.53;3.30;;;;;;;29.14;44.36;98203.81;5046689;28;20255;-71
2022/08/01 11:06:17;;;;;;;2.97;2.78;;;;;;;29.30;43.66;98195.97;5051184;28;20208;-71
2022/08/01 11:08:51;;;;;;;2.40;2.30;;;;;;;29.17;43.07;98208.84;5050096;28;20227;-80
2022/08/01 11:11:21;;;;;;;2.60;2.40;;;;;;;28.88;43.77;98201.25;5051732;28;20216;-71
2022/08/01 11:14:09;;;;;;;2.53;2.33;;;;;;;28.60;44.52;98196.22;5048432;28;20212;-70
2022/08/01 11:16:38;;;;;;;2.55;2.20;;;;;;;28.33;44.85;98194.66;5051234;28;20677;-71
2022/08/01 11:19:05;;;;;;;2.20;2.00;;;;;;;28.05;46.13;98194.13;5051230;28;20678;-71
2022/08/01 11:22:02;;;;;;;2.47;2.28;;;;;;;28.27;45.29;98194.66;5050677;28;20251;-70
2022/08/01 11:25:01;;;;;;;3.53;2.28;;;;;;;28.38;45.03;98194.84;5051440;28;20215;-70
2022/08/01 11:27:30;;;;;;;2.55;2.20;;;;;;;28.49;44.44;98187.91;5051898;28;20258;-70
2022/08/01 11:30:22;;;;;;;2.13;2.03;;;;;;;28.51;45.16;98178.50;5052271;28;20219;-70
2022/08/01 11:32:50;;;;;;;2.50;2.30;;;;;;;28.65;45.81;98173.78;5051813;28;20669;-69
2022/08/01 11:35:19;;;;;;;2.50;2.30;;;;;;;28.67;45.35;98177.97;5051364;28;20228;-71
2022/08/01 11:37:46;;;;;;;2.35;2.15;;;;;;;28.71;44.64;98178.34;5052067;28;20298;-71
2022/08/01 11:40:17;;;;;;;2.45;2.30;;;;;;;28.62;44.84;98177.78;5051976;28;20434;-71
2022/08/01 11:42:45;;;;;;;3.40;2.20;;;;;;;28.52;45.36;98180.16;5050803;28;20243;-69
2022/08/01 11:45:11;;;;;;;2.08;1.98;;;;;;;28.46;45.36;98162.00;5049439;28;20220;-70